Time;durP1;ratioP1;P1;durP2;ratioP2;P2;SDS_P1;SDS_P2;PMS_P1;PMS_P2;Temp;Humidity;BMP_temperature;BMP_pressure;BME280_temperature;BME280_humidity;BME280_pressure;Samples;Min_cycle;Max_cycle;Signal;HPM_P1;HPM_P2
2023/06/03 00:04:53;;;;;;;5.3;2.6;;;;;;;7.1;83;99150;;;;
2023/06/03 00:15:53;;;;;;;5.3;2.6;;;;;;;7.1;83.5;99150;;;;
2023/06/03 00:25:53;;;;;;;6.3;2.4;;;;;;;6.9;83.4;99160;;;;
2023/06/03 00:35:53;;;;;;;6.3;2.4;;;;;;;6.7;83.4;99150;;;;
2023/06/03 00:46:53;;;;;;;6.3;2.4;;;;;;;6.4;83.4;99160;;;;
2023/06/03 00:56:53;;;;;;;6.2;3.2;;;;;;;6.2;84.2;99170;;;;
2023/06/03 01:07:53;;;;;;;6.2;3.2;;;;;;;6.1;84.1;99180;;;;
2023/06/03 01:18:53;;;;;;;6.2;3.2;;;;;;;6.1;86;99180;;;;
2023/06/03 01:28:53;;;;;;;9.5;4.4;;;;;;;6.1;86.8;99180;;;;
2023/06/03 01:38:54;;;;;;;9.5;4.4;;;;;;;6;86.4;99200;;;;
2023/06/03 01:49:53;;;;;;;9.5;4.4;;;;;;;5.8;86;99210;;;;
2023/06/03 01:59:53;;;;;;;8.5;4;;;;;;;5.6;86.3;99210;;;;
2023/06/03 02:10:53;;;;;;;8.5;4;;;;;;;5.5;86.8;99210;;;;
2023/06/03 02:21:56;;;;;;;8.5;4;;;;;;;5.4;87.9;99210;;;;
2023/06/03 02:32:53;;;;;;;6.8;2.8;;;;;;;5.4;88;99220;;;;
2023/06/03 02:43:53;;;;;;;6.8;2.8;;;;;;;5.5;89.3;99230;;;;
2023/06/03 02:54:53;;;;;;;6;3.6;;;;;;;5.6;89.2;99230;;;;
2023/06/03 03:04:53;;;;;;;6;3.6;;;;;;;5.7;89.5;99230;;;;
2023/06/03 03:14:53;;;;;;;6;3.6;;;;;;;5.9;90.3;99250;;;;
2023/06/03 03:24:53;;;;;;;9.4;3.4;;;;;;;6;89;99250;;;;
2023/06/03 03:34:54;;;;;;;9.4;3.4;;;;;;;6.1;89.3;99260;;;;
2023/06/03 03:44:53;;;;;;;9.4;3.4;;;;;;;6.4;89.1;99270;;;;
2023/06/03 03:54:53;;;;;;;7.7;3.8;;;;;;;6.7;89.3;99280;;;;
2023/06/03 04:04:53;;;;;;;7.7;3.8;;;;;;;7.1;89.2;99280;;;;
2023/06/03 04:15:53;;;;;;;7.7;3.8;;;;;;;7.5;89.4;99280;;;;
2023/06/03 04:25:55;;;;;;;11.4;5.8;;;;;;;7.9;89.3;99280;;;;
2023/06/03 04:35:53;;;;;;;11.4;5.8;;;;;;;8.3;88.1;99290;;;;
2023/06/03 04:46:53;;;;;;;11.4;5.8;;;;;;;8.8;86.3;99300;;;;
2023/06/03 04:57:54;;;;;;;11.1;5.8;;;;;;;9.3;83.6;99300;;;;
2023/06/03 05:07:53;;;;;;;11.1;5.8;;;;;;;9.8;82.3;99310;;;;
2023/06/03 05:18:53;;;;;;;11.1;5.8;;;;;;;10;81.4;99330;;;;
2023/06/03 05:28:53;;;;;;;13.2;8.1;;;;;;;10.2;79.3;99320;;;;
2023/06/03 05:38:53;;;;;;;13.2;8.1;;;;;;;10.7;77.7;99330;;;;
2023/06/03 05:48:53;;;;;;;13.2;8.1;;;;;;;11;75.8;99330;;;;
2023/06/03 05:58:54;;;;;;;12.5;8.6;;;;;;;10.8;75.7;99340;;;;
2023/06/03 06:08:53;;;;;;;12.5;8.6;;;;;;;10.8;73.6;99340;;;;
2023/06/03 06:19:53;;;;;;;12.5;8.6;;;;;;;11.1;74.2;99350;;;;
2023/06/03 06:29:53;;;;;;;8.8;7.3;;;;;;;11.1;72;99360;;;;
2023/06/03 06:39:54;;;;;;;8.8;7.3;;;;;;;11.4;69.5;99350;;;;
2023/06/03 06:49:53;;;;;;;8.8;7.3;;;;;;;11.7;69.6;99350;;;;
2023/06/03 07:00:53;;;;;;;6.5;4.6;;;;;;;12;66.4;99350;;;;
2023/06/03 07:10:53;;;;;;;6.5;4.6;;;;;;;12.9;65.9;99350;;;;
2023/06/03 07:20:53;;;;;;;6.5;4.6;;;;;;;13.6;61.5;99360;;;;
2023/06/03 07:30:53;;;;;;;8.3;5.2;;;;;;;13.6;60.5;99370;;;;
2023/06/03 07:40:53;;;;;;;8.3;5.2;;;;;;;13.6;60.7;99370;;;;
2023/06/03 07:50:53;;;;;;;8.3;5.2;;;;;;;13.3;60.2;99370;;;;
2023/06/03 08:00:53;;;;;;;9.1;5;;;;;;;13.4;60.7;99370;;;;
2023/06/03 08:11:53;;;;;;;9.1;5;;;;;;;13.7;58.7;99370;;;;
2023/06/03 08:21:53;;;;;;;9.1;5;;;;;;;14;54.9;99370;;;;
2023/06/03 08:31:53;;;;;;;6.8;3.9;;;;;;;14;54.2;99380;;;;
2023/06/03 08:42:53;;;;;;;6.8;3.9;;;;;;;14.4;50.6;99390;;;;
2023/06/03 08:52:53;;;;;;;6.8;3.9;;;;;;;14.8;48.4;99380;;;;
2023/06/03 09:03:53;;;;;;;8.1;3.4;;;;;;;14.8;45.2;99390;;;;
2023/06/03 09:14:53;;;;;;;8.1;3.4;;;;;;;14.9;44.2;99380;;;;
2023/06/03 09:25:53;;;;;;;6.4;2.3;;;;;;;14.6;46;99370;;;;
2023/06/03 09:35:53;;;;;;;6.4;2.3;;;;;;;15;43.6;99370;;;;
2023/06/03 09:45:53;;;;;;;6.4;2.3;;;;;;;15.1;44.5;99360;;;;
2023/06/03 09:56:53;;;;;;;6.6;3;;;;;;;15;44.5;99350;;;;
2023/06/03 10:06:53;;;;;;;6.6;3;;;;;;;15.1;44.9;99360;;;;
2023/06/03 10:16:53;;;;;;;6.6;3;;;;;;;15.2;43.6;99350;;;;
2023/06/03 10:26:53;;;;;;;4.2;2.1;;;;;;;15.3;43.9;99350;;;;
2023/06/03 10:37:53;;;;;;;4.2;2.1;;;;;;;15.6;43.6;99320;;;;
2023/06/03 10:47:53;;;;;;;4.2;2.1;;;;;;;15.6;43.6;99320;;;;
2023/06/03 10:57:53;;;;;;;6.8;2.1;;;;;;;15.7;41.5;99320;;;;
2023/06/03 11:08:54;;;;;;;6.8;2.1;;;;;;;16;41.2;99310;;;;
2023/06/03 11:19:55;;;;;;;6.8;2.1;;;;;;;15.9;42.8;99310;;;;
2023/06/03 11:29:56;;;;;;;8;3;;;;;;;16.2;41.9;99310;;;;
2023/06/03 11:39:54;;;;;;;8;3;;;;;;;16.3;40.9;99300;;;;
2023/06/03 11:50:53;;;;;;;8;3;;;;;;;16.7;41.9;99300;;;;
2023/06/03 12:01:53;;;;;;;4.3;1.6;;;;;;;16.6;41.7;99290;;;;
2023/06/03 12:11:54;;;;;;;4.3;1.6;;;;;;;16.7;40.3;99280;;;;
2023/06/03 12:21:53;;;;;;;4.3;1.6;;;;;;;16.7;39.3;99280;;;;
2023/06/03 12:32:57;;;;;;;3;1.3;;;;;;;16.9;40.2;99280;;;;
2023/06/03 12:42:54;;;;;;;3;1.3;;;;;;;17.2;41;99260;;;;
2023/06/03 12:53:55;;;;;;;3;1.3;;;;;;;17.3;39.2;99270;;;;
2023/06/03 13:03:54;;;;;;;5.5;1.7;;;;;;;17.3;39.4;99260;;;;
2023/06/03 13:14:54;;;;;;;5.5;1.7;;;;;;;17.6;39.6;99240;;;;
2023/06/03 13:25:53;;;;;;;5.6;2.2;;;;;;;17.5;38.3;99240;;;;
2023/06/03 13:36:53;;;;;;;5.6;2.2;;;;;;;17.7;40;99230;;;;
2023/06/03 13:46:53;;;;;;;5.6;2.2;;;;;;;17.8;38.7;99230;;;;
2023/06/03 13:56:54;;;;;;;3.9;1.7;;;;;;;18.2;36.9;99230;;;;
2023/06/03 14:06:54;;;;;;;3.9;1.7;;;;;;;18;35.9;99220;;;;
2023/06/03 14:16:53;;;;;;;3.9;1.7;;;;;;;18.6;36.4;99200;;;;
2023/06/03 14:27:54;;;;;;;5.4;2.3;;;;;;;18.8;37.2;99200;;;;
2023/06/03 14:37:53;;;;;;;5.4;2.3;;;;;;;19.3;34.7;99180;;;;
2023/06/03 14:47:54;;;;;;;5.4;2.3;;;;;;;19.1;36;99180;;;;
2023/06/03 14:57:53;;;;;;;5.1;2.1;;;;;;;19.5;37.7;99180;;;;
2023/06/03 15:07:54;;;;;;;5.1;2.1;;;;;;;22.4;31.1;99170;;;;
2023/06/03 15:18:53;;;;;;;5.1;2.1;;;;;;;23.3;28.1;99160;;;;
2023/06/03 15:28:53;;;;;;;4.8;1.2;;;;;;;23.5;28.4;99160;;;;
2023/06/03 15:38:53;;;;;;;4.8;1.2;;;;;;;25;26.2;99140;;;;
2023/06/03 15:49:53;;;;;;;4.8;1.2;;;;;;;25.5;26.2;99130;;;;
2023/06/03 15:59:53;;;;;;;6.9;2.7;;;;;;;24.2;27.3;99130;;;;
2023/06/03 16:09:54;;;;;;;6.9;2.7;;;;;;;25.8;25.4;99130;;;;
2023/06/03 16:19:54;;;;;;;6.9;2.7;;;;;;;26.5;25.6;99120;;;;
2023/06/03 16:29:54;;;;;;;4.3;1.5;;;;;;;26.5;24.8;99120;;;;
2023/06/03 16:39:54;;;;;;;4.3;1.5;;;;;;;26.1;24.1;99110;;;;
2023/06/03 16:50:54;;;;;;;4.3;1.5;;;;;;;24;27.2;99120;;;;
2023/06/03 17:01:54;;;;;;;5.5;1.7;;;;;;;25.9;25.8;99120;;;;
2023/06/03 17:11:54;;;;;;;5.5;1.7;;;;;;;22.6;29.5;99120;;;;
2023/06/03 17:22:53;;;;;;;5.5;1.7;;;;;;;20;33.2;99140;;;;
2023/06/03 17:32:54;;;;;;;4.9;1.7;;;;;;;19.4;33.5;99130;;;;
2023/06/03 17:42:54;;;;;;;4.9;1.7;;;;;;;21.4;30.9;99120;;;;
2023/06/03 17:52:53;;;;;;;4.9;1.7;;;;;;;22.2;30;99120;;;;
2023/06/03 18:02:54;;;;;;;3.7;1.5;;;;;;;20.4;33.2;99120;;;;
2023/06/03 18:13:54;;;;;;;3.7;1.5;;;;;;;17.6;37.1;99130;;;;
2023/06/03 18:23:54;;;;;;;3.7;1.5;;;;;;;16.3;38.8;99140;;;;
2023/06/03 18:34:54;;;;;;;4.2;2.3;;;;;;;15.2;42.2;99150;;;;
2023/06/03 18:45:54;;;;;;;4.2;2.3;;;;;;;14.4;44.5;99160;;;;
2023/06/03 18:56:54;;;;;;;7.2;2.6;;;;;;;13.6;45.8;99160;;;;
2023/06/03 19:07:54;;;;;;;7.2;2.6;;;;;;;13.1;47.7;99170;;;;
2023/06/03 19:17:54;;;;;;;7.2;2.6;;;;;;;12.8;48.3;99170;;;;
2023/06/03 19:27:54;;;;;;;5.5;2.9;;;;;;;12.6;49;99190;;;;
2023/06/03 19:38:55;;;;;;;5.5;2.9;;;;;;;12.2;50.2;99200;;;;
2023/06/03 19:48:54;;;;;;;5.5;2.9;;;;;;;12.1;51.1;99210;;;;
2023/06/03 19:58:54;;;;;;;6;2.6;;;;;;;11.8;51.8;99220;;;;
2023/06/03 20:08:54;;;;;;;6;2.6;;;;;;;11.5;52.9;99230;;;;
2023/06/03 20:18:54;;;;;;;6;2.6;;;;;;;11.1;55.9;99230;;;;
2023/06/03 20:28:54;;;;;;;8.9;3.5;;;;;;;10.8;55.2;99240;;;;
2023/06/03 20:39:54;;;;;;;8.9;3.5;;;;;;;10.4;56.1;99240;;;;
2023/06/03 20:49:54;;;;;;;8.9;3.5;;;;;;;9.9;56.4;99250;;;;
2023/06/03 21:00:54;;;;;;;6.3;3.6;;;;;;;9.4;58.8;99250;;;;
2023/06/03 21:10:54;;;;;;;6.3;3.6;;;;;;;9;59.4;99250;;;;
2023/06/03 21:20:54;;;;;;;6.3;3.6;;;;;;;8.6;63;99240;;;;
2023/06/03 21:31:54;;;;;;;7.7;3.8;;;;;;;8.4;64.6;99240;;;;
2023/06/03 21:42:54;;;;;;;7.7;3.8;;;;;;;8.3;65.1;99250;;;;
2023/06/03 21:52:54;;;;;;;7.7;3.8;;;;;;;8.1;65.6;99240;;;;
2023/06/03 22:03:54;;;;;;;6.5;3.3;;;;;;;8.1;67.1;99240;;;;
2023/06/03 22:13:54;;;;;;;6.5;3.3;;;;;;;7.8;65.7;99240;;;;
2023/06/03 22:24:54;;;;;;;8.4;3.2;;;;;;;7.4;66.8;99240;;;;
2023/06/03 22:34:54;;;;;;;8.4;3.2;;;;;;;7.2;67.6;99240;;;;
2023/06/03 22:44:54;;;;;;;8.4;3.2;;;;;;;6.9;69.5;99230;;;;
2023/06/03 22:55:54;;;;;;;5.9;3.6;;;;;;;7;71.8;99220;;;;
2023/06/03 23:06:54;;;;;;;5.9;3.6;;;;;;;7;71.2;99230;;;;
2023/06/03 23:16:54;;;;;;;5.9;3.6;;;;;;;6.9;70.7;99230;;;;
2023/06/03 23:27:54;;;;;;;5.3;2.3;;;;;;;6.6;71.1;99230;;;;
2023/06/03 23:37:54;;;;;;;5.3;2.3;;;;;;;6.4;71.9;99230;;;;
2023/06/03 23:47:54;;;;;;;5.3;2.3;;;;;;;6.3;72.4;99220;;;;
2023/06/03 23:57:54;;;;;;;5.8;2;;;;;;;6.1;72.3;99220;;;;
